KBIJ

Early County Airport

Blakely, Georgia, USA
METAR KBIJ 220955Z AUTO 00000KT 7SM OVC006 22/20 A3005 RMK AO2 LTG DSNT SW AND W
Observed Flight Rules
May-22 @ 09:55 UTC (21 minutes ago) Instrument Flight Rules
Visibility Clouds
7 miles
  • Overcast at 600' AGL
Temperatures Readings
Current 22°C / 72°F
Dewpoint 20°C / 68°F
Humidity 88%
Altimeter 30.05" Hg
Pressure 1018 hPa
Elevation 65
METAR KBIJ 220955Z AUTO 00000KT 7SM OVC006 22/20 A3005 RMK AO2 LTG DSNT SW AND W
Observed Flight Rules
May-22 @ 09:55 UTC
(21 minutes ago)
IFR
Clouds
  • Overcast at 600' AGL
Temperature Dewpoint
22°C / 72°F 20°C / 68°F
Humidity Altimeter Pressure
88% 30.05" Hg 1018 hPa